Strona główna
METAR-TAF:

METAR-TAF

Lotnisko :

Baza lotnicza

Tafraoui, Algieria

Szerokość geograficzna: 35-32-33N, Długość geograficzna: 000-31-56W, wysokość: 112 m

Aktualna obserwacja pogody

Raport powstał 57 minut temu, godzina 17:00 UTC
Wiatr 18 kt od północny wschód
Temperatura 30°C
Wilgotność 33%
Ciśnienie 1008 hPa
Widzialność: 8000 m

METAR: DAOL 251700Z 05018KT 8000 NSC 30/12 Q1008

czas: 18:57 (17:57 UTC)


TAF: brakujący

Obserwacja i prognoza pogody dla ponad 4000 lotnisk (raport METAR i TAF).

Dostępne stacje oznaczono żółtymi i czerwonymi punktami na mapie.

Najedź kursorem aby zobaczyć nazwę stacji.

Kliknij aby zobaczyć obserwacje i prognozy pogody.

Aby zmienić mapę: kliknij na zielony przycisk z czarnym krzyżykiem, aby powiększyć; na zielony przycisk z myślnikiem, aby pomniejszyć; na zielone strzałki, aby przejść do map sąsiednich.


METAR-TAF: